• Join FlightAware (Why Join?)
  • Login
  • US Flag GB Flag 
05:55 EDT


 

Airport Tracker/Info


-or-


 

Live Flight TrackerFlight Track Log ✈ N2317S ✈ 11-Oct-2013 ✈ KBTV - KBTV

Flight Track Log - Related Links

Times and Time Zones

All times are in EDT time to prevent confusion due to time zone crossing. See the N2317S flight status page for this flight to view local times or setup timezone preferences in your user account.

Time Position Orientation Groundspeed Altitude Reporting Facility
EDT Latitude Longitude Course Direction KTS MPH feet Rate Location/Type
08:47 44.4719 -73.1533 304° West  Level Estimated
08:48 44.4754 -73.1608 304° West  Level FlightAware Approximate
08:49 44.4790 -73.1683 304° West  Level FlightAware Approximate
08:50 44.4825 -73.1758 304° West  Level FlightAware Approximate
08:51 44.4861 -73.1833 304° West  Level FlightAware Approximate
08:52 44.4825 -73.1758 312° West  Level Estimated
08:53 44.4866 -73.1828 309° West  Level FlightAware Approximate
08:54 44.4906 -73.1898 309° West  Level FlightAware Approximate
08:55 44.4947 -73.1968 309° West  Level FlightAware Approximate
08:56 44.4987 -73.2038 309° West  Level FlightAware Approximate
08:57 44.5028 -73.2108 309° West  Level FlightAware Approximate
08:58 44.5068 -73.2178 309° West  Level FlightAware Approximate
08:59 44.5108 -73.2248 309° West  Level FlightAware Approximate
09:00 44.5149 -73.2318 309° West  Level FlightAware Approximate
09:01 44.5189 -73.2388 309° West  Level FlightAware Approximate
09:02 44.5230 -73.2458 309° West  Level FlightAware Approximate
09:03 44.5270 -73.2528 309° West  Level FlightAware Approximate
09:04 44.5311 -73.2598 309° West  Level FlightAware Approximate
09:05 44.5351 -73.2668 309° West  Level FlightAware Approximate
09:06 44.5391 -73.2738 309° West  Level FlightAware Approximate
09:07 44.5432 -73.2808 309° West  Level FlightAware Approximate
09:08 44.5472 -73.2878 309° West  Level FlightAware Approximate
09:09 44.5513 -73.2948 309° West  Level FlightAware Approximate
09:10 44.5553 -73.3018 309° West  Level FlightAware Approximate
09:11 44.5593 -73.3089 309° West  Level FlightAware Approximate
09:12 44.5634 -73.3159 309° West  Level FlightAware Approximate
09:13 44.5674 -73.3229 309° West  Level FlightAware Approximate
09:14 44.5714 -73.3299 309° West  Level FlightAware Approximate
09:15 44.5755 -73.3369 309° West  Level FlightAware Approximate
09:16 44.5795 -73.3439 309° West  Level FlightAware Approximate
09:17 44.5836 -73.3510 309° West  Level FlightAware Approximate
09:18 44.5876 -73.3580 309° West  Level FlightAware Approximate
09:19 44.5836 -73.3509 129° Southeast  Level Estimated
09:20 44.5810 -73.3427 114° Southeast  Level FlightAware Approximate
09:21 44.5836 -73.3509 294° West  Level FlightAware Approximate
09:22 44.5810 -73.3427 114° Southeast  Level FlightAware Approximate
09:23 44.5836 -73.3509 294° West  Level FlightAware Approximate
09:24 44.5810 -73.3427 114° Southeast  Level FlightAware Approximate
09:25 44.5836 -73.3509 294° West  Level FlightAware Approximate
09:26 44.5810 -73.3427 114° Southeast  Level FlightAware Approximate
09:27 44.5836 -73.3509 294° West  Level FlightAware Approximate
09:28 44.5810 -73.3427 114° Southeast  Level FlightAware Approximate
09:29 44.5836 -73.3509 294° West  Level FlightAware Approximate
09:30 44.5810 -73.3427 114° Southeast  Level FlightAware Approximate
09:31 44.5836 -73.3509 294° West  Level FlightAware Approximate
09:32 44.5810 -73.3427 114° Southeast  Level FlightAware Approximate
09:33 44.5836 -73.3509 294° West  Level FlightAware Approximate
09:34 44.5810 -73.3427 114° Southeast  Level FlightAware Approximate
09:35 44.5836 -73.3509 294° West  Level FlightAware Approximate
09:36 44.5797 -73.3442 131° Southeast  Level FlightAware Approximate
09:37 44.5755 -73.3374 131° Southeast  Level FlightAware Approximate
09:38 44.5713 -73.3306 131° Southeast  Level FlightAware Approximate
09:39 44.5670 -73.3239 131° Southeast  Level FlightAware Approximate
09:40 44.5628 -73.3171 131° Southeast  Level FlightAware Approximate
09:41 44.5586 -73.3103 131° Southeast  Level FlightAware Approximate
09:42 44.5543 -73.3035 131° Southeast  Level FlightAware Approximate
09:43 44.5501 -73.2967 131° Southeast  Level FlightAware Approximate
09:44 44.5458 -73.2899 131° Southeast  Level FlightAware Approximate
09:45 44.5416 -73.2832 131° Southeast  Level FlightAware Approximate
09:46 44.5374 -73.2764 131° Southeast  Level FlightAware Approximate
09:47 44.5331 -73.2696 131° Southeast  Level FlightAware Approximate
09:48 44.5289 -73.2628 131° Southeast  Level FlightAware Approximate
09:49 44.5246 -73.2561 131° Southeast  Level FlightAware Approximate
09:50 44.5204 -73.2493 131° Southeast  Level FlightAware Approximate
09:51 44.5162 -73.2425 131° Southeast  Level FlightAware Approximate
09:52 44.5119 -73.2357 131° Southeast  Level FlightAware Approximate
09:53 44.5077 -73.2290 131° Southeast  Level FlightAware Approximate
09:54 44.5034 -73.2222 131° Southeast  Level FlightAware Approximate
09:55 44.4993 -73.2153 125° Southeast  Level FlightAware Approximate
09:56 44.4956 -73.2079 125° Southeast  Level FlightAware Approximate
09:57 44.4919 -73.2005 125° Southeast  Level FlightAware Approximate
09:58 44.4883 -73.1932 125° Southeast  Level FlightAware Approximate
09:59 44.4846 -73.1858 125° Southeast  Level FlightAware Approximate
10:00 44.4809 -73.1784 125° Southeast  Level FlightAware Approximate
10:01 44.4772 -73.1710 125° Southeast  Level FlightAware Approximate
10:02 44.4735 -73.1637 125° Southeast  Level FlightAware Approximate
10:03 44.4698 -73.1563 125° Southeast  Level FlightAware Approximate
10:04 44.4667 -73.1500 125° Southeast  Level FlightAware Approximate
10:05 44.4719 -73.1533 125° Southeast  Level Estimated
10:06 44.4667 -73.1500 125° Southeast  Level FlightAware Approximate
10:07 44.4719 -73.1533 125° Southeast  Level Estimated
10:08 44.4667 -73.1500 125° Southeast  Level FlightAware Approximate
10:09 44.4719 -73.1533 125° Southeast  Level Estimated
10:10 44.4667 -73.1500 125° Southeast  Level FlightAware Approximate
10:11 44.4719 -73.1533 125° Southeast  Level Estimated
10:12 44.4667 -73.1500 125° Southeast  Level FlightAware Approximate
10:13 44.4719 -73.1533 125° Southeast  Level Estimated
10:14 44.4667 -73.1500 125° Southeast  Level FlightAware Approximate
10:15 44.4719 -73.1533 125° Southeast  Level Estimated
10:16 44.4667 -73.1500 125° Southeast  Level FlightAware Approximate
10:17 44.4719 -73.1533 125° Southeast  Level Estimated
10:18 44.4667 -73.1500 125° Southeast  Level FlightAware Approximate
10:19 44.4719 -73.1533 125° Southeast  Level Estimated
10:20 44.4667 -73.1500 125° Southeast  Level FlightAware Approximate
10:21 44.4719 -73.1533 125° Southeast  Level Estimated
10:22 44.4667 -73.1500 125° Southeast  Level FlightAware Approximate
10:23 44.4719 -73.1533 125° Southeast  Level Estimated
10:24 44.4667 -73.1500 125° Southeast  Level FlightAware Approximate
10:25 44.4719 -73.1533 125° Southeast  Level Estimated
10:26 44.4667 -73.1500 125° Southeast  Level FlightAware Approximate